createdAt,value
2018-09-04T00:01:53.194Z,101610.65
2018-09-04T00:06:55.313Z,101604.13
2018-09-04T00:11:57.473Z,101595.48
2018-09-04T00:16:59.597Z,101591.50
2018-09-04T00:22:01.712Z,101591.84
2018-09-04T00:27:03.851Z,101596.08
2018-09-04T00:32:06.090Z,101590.00
2018-09-04T00:37:08.218Z,101586.95
2018-09-04T00:42:10.385Z,101589.85
2018-09-04T00:47:12.576Z,101592.81
2018-09-04T00:52:14.700Z,101586.35
2018-09-04T00:57:16.796Z,101590.59
2018-09-04T01:02:18.938Z,101584.92
2018-09-04T01:07:21.059Z,101590.92
2018-09-04T01:12:23.180Z,101601.11
2018-09-04T01:17:25.382Z,101595.56
2018-09-04T01:22:27.510Z,101594.62
2018-09-04T01:27:29.628Z,101595.47
2018-09-04T01:32:31.739Z,101588.93
2018-09-04T01:37:33.894Z,101583.73
2018-09-04T01:42:36.150Z,101575.52
2018-09-04T01:47:38.272Z,101580.69
2018-09-04T01:52:40.953Z,101575.54
2018-09-04T01:57:43.074Z,101569.95
2018-09-04T02:02:45.526Z,101572.52
2018-09-04T02:07:48.457Z,101569.47
2018-09-04T02:12:50.598Z,101567.38
2018-09-04T02:17:52.755Z,101566.48
2018-09-04T02:22:54.919Z,101565.13
2018-09-04T02:27:57.197Z,101559.59
2018-09-04T02:32:59.363Z,101556.59
2018-09-04T02:38:01.570Z,101560.83
2018-09-04T02:43:03.846Z,101558.23
2018-09-04T02:48:06.006Z,101561.12
2018-09-04T02:53:08.152Z,101556.50
2018-09-04T02:58:10.386Z,101550.01
2018-09-04T03:03:12.505Z,101547.37
2018-09-04T03:08:14.625Z,101546.48
2018-09-04T03:13:16.790Z,101545.09
2018-09-04T03:18:18.922Z,101548.14
2018-09-04T03:23:21.014Z,101543.41
2018-09-04T03:28:23.117Z,101553.64
2018-09-04T03:33:25.246Z,101548.47
2018-09-04T03:38:27.378Z,101548.03
2018-09-04T03:43:29.500Z,101550.14
2018-09-04T03:48:31.663Z,101551.38
2018-09-04T03:53:33.775Z,101556.92
2018-09-04T03:58:35.943Z,101556.52
2018-09-04T04:03:38.086Z,101558.59
2018-09-04T04:08:40.191Z,101548.84
2018-09-04T04:13:42.353Z,101555.23
2018-09-04T04:18:44.485Z,101562.52
2018-09-04T04:23:46.598Z,101565.10
2018-09-04T04:28:48.769Z,101568.52
2018-09-04T04:33:51.377Z,101567.74
2018-09-04T04:38:53.517Z,101566.86
2018-09-04T04:43:55.640Z,101564.79
2018-09-04T04:48:57.795Z,101557.95
2018-09-04T04:54:00.083Z,101558.77
2018-09-04T04:59:02.443Z,101562.22
2018-09-04T05:04:04.777Z,101559.73
2018-09-04T05:09:07.656Z,101565.25
2018-09-04T05:14:09.804Z,101578.95
2018-09-04T05:19:11.904Z,101576.53
2018-09-04T05:24:14.023Z,101574.42
2018-09-04T05:29:16.563Z,101580.96
2018-09-04T05:34:18.666Z,101586.69
2018-09-04T05:39:20.777Z,101581.02
2018-09-04T05:44:22.933Z,101585.36
2018-09-04T05:49:31.482Z,101575.91
2018-09-04T05:54:33.650Z,101579.47
2018-09-04T05:59:35.817Z,101583.03
2018-09-04T06:04:38.000Z,101588.70
2018-09-04T06:09:40.102Z,101584.53
2018-09-04T06:14:42.267Z,101584.19
2018-09-04T06:19:44.429Z,101588.91
2018-09-04T06:24:46.555Z,101583.26
2018-09-04T06:29:48.710Z,101588.41
2018-09-04T06:34:50.854Z,101592.30
2018-09-04T06:39:52.979Z,101597.08
2018-09-04T06:44:55.119Z,101592.88
2018-09-04T06:49:57.325Z,101592.93
2018-09-04T06:54:59.438Z,101590.50
2018-09-04T07:00:01.573Z,101592.30
2018-09-04T07:05:04.996Z,101599.63
2018-09-04T07:10:07.404Z,101605.64
2018-09-04T07:15:09.572Z,101600.42
2018-09-04T07:20:11.735Z,101580.28
2018-09-04T07:25:13.870Z,101599.14
2018-09-04T07:30:15.975Z,101603.34
2018-09-04T07:35:18.088Z,101608.94
2018-09-04T07:40:20.235Z,101605.50
2018-09-04T07:45:22.465Z,101602.57
2018-09-04T07:50:24.650Z,101606.02
2018-09-04T07:55:26.795Z,101606.02
2018-09-04T08:00:28.933Z,101603.50
2018-09-04T08:05:31.095Z,101603.08
2018-09-04T08:10:34.857Z,101601.09
2018-09-04T08:15:37.143Z,101598.14
2018-09-04T08:20:39.370Z,101597.35
2018-09-04T08:25:41.466Z,101594.92
2018-09-04T08:30:43.631Z,101595.85
2018-09-04T08:35:45.750Z,101600.63
2018-09-04T08:40:47.932Z,101591.23
2018-09-04T08:45:50.090Z,101587.03
2018-09-04T08:50:52.301Z,101586.25
2018-09-04T08:55:54.461Z,101591.84
2018-09-04T09:00:56.616Z,101596.95
2018-09-04T09:05:58.783Z,101604.69
2018-09-04T09:11:00.952Z,101599.48
2018-09-04T09:16:03.113Z,101592.16
2018-09-04T09:21:05.280Z,101582.23
2018-09-04T09:26:07.416Z,101577.52
2018-09-04T09:31:09.586Z,101587.03
2018-09-04T09:36:11.760Z,101579.80
2018-09-04T09:41:14.010Z,101577.71
2018-09-04T09:46:16.174Z,101572.59
2018-09-04T09:51:18.338Z,101567.44
2018-09-04T09:56:20.571Z,101563.14
2018-09-04T10:01:28.466Z,101559.28
2018-09-04T10:06:30.606Z,101544.69
2018-09-04T10:11:32.821Z,101550.27
2018-09-04T10:16:35.047Z,101556.30
2018-09-04T10:21:37.171Z,101555.47
2018-09-04T10:26:39.402Z,101552.05
2018-09-04T10:31:41.573Z,101553.33
2018-09-04T10:36:44.776Z,101553.73
2018-09-04T10:41:46.924Z,101548.55
2018-09-04T10:46:49.084Z,101550.73
2018-09-04T10:51:51.273Z,101542.03
2018-09-04T10:56:53.508Z,101541.09
2018-09-04T11:01:55.726Z,101530.71
2018-09-04T11:06:57.903Z,101528.01
2018-09-04T11:12:00.025Z,101528.86
2018-09-04T11:17:02.169Z,101528.31
2018-09-04T11:22:04.472Z,101532.03
2018-09-04T11:27:06.642Z,101533.16
2018-09-04T11:32:08.834Z,101532.50
2018-09-04T11:37:11.011Z,101534.54
2018-09-04T11:42:13.418Z,101532.95
2018-09-04T11:47:15.586Z,101537.25
2018-09-04T11:52:17.807Z,101535.50
2018-09-04T11:57:20.809Z,101539.67
2018-09-04T12:02:30.323Z,101544.81
2018-09-04T12:07:32.506Z,101542.52
2018-09-04T12:12:35.274Z,101537.97
2018-09-04T12:17:37.217Z,101537.90
2018-09-04T12:22:39.341Z,101172.07
2018-09-04T12:27:41.479Z,101539.36
2018-09-04T12:32:43.647Z,101532.47
2018-09-04T12:37:45.985Z,101523.69
2018-09-04T12:42:48.183Z,101535.90
2018-09-04T12:47:50.851Z,101541.73
2018-09-04T12:52:53.057Z,101540.23
2018-09-04T12:57:55.227Z,101539.66
2018-09-04T13:02:57.408Z,101545.14
2018-09-04T13:07:59.555Z,101530.62
2018-09-04T13:13:01.714Z,101537.05
2018-09-04T13:18:04.063Z,101529.30
2018-09-04T13:23:06.212Z,101529.28
2018-09-04T13:28:08.662Z,101532.02
2018-09-04T13:33:10.849Z,101535.91
2018-09-04T13:38:13.018Z,101530.20
2018-09-04T13:43:15.197Z,101518.80
2018-09-04T13:48:17.459Z,101528.92
2018-09-04T13:53:19.708Z,101530.09
2018-09-04T13:58:22.131Z,101517.34
2018-09-04T14:03:24.301Z,101528.78
2018-09-04T14:08:26.494Z,101525.80
2018-09-04T14:13:28.629Z,101523.50
2018-09-04T14:18:30.826Z,101531.27
2018-09-04T14:23:33.015Z,101533.14
2018-09-04T14:28:42.110Z,101534.78
2018-09-04T14:33:37.589Z,101534.20
2018-09-04T14:38:39.807Z,101535.39
2018-09-04T14:43:41.990Z,101537.97
2018-09-04T14:48:44.175Z,101534.53
2018-09-04T14:53:46.458Z,101536.22
2018-09-04T14:58:48.596Z,101537.77
2018-09-04T15:03:50.743Z,101537.42
2018-09-04T15:08:52.947Z,101540.83
2018-09-04T15:13:55.148Z,101537.39
2018-09-04T15:18:57.525Z,101545.53
2018-09-04T15:23:59.752Z,101543.27
2018-09-04T15:29:02.026Z,101543.98
2018-09-04T15:34:04.267Z,101556.28
2018-09-04T15:39:06.688Z,101551.87
2018-09-04T15:44:08.880Z,101559.80
2018-09-04T15:49:16.691Z,101553.67
2018-09-04T15:54:18.901Z,101557.02
2018-09-04T15:59:21.050Z,101562.47
2018-09-04T16:04:23.276Z,101560.28
2018-09-04T16:09:25.703Z,101568.44
2018-09-04T16:14:27.875Z,101568.70
2018-09-04T16:19:30.092Z,101568.24
2018-09-04T16:24:32.325Z,101568.45
2018-09-04T16:29:34.459Z,101565.52
2018-09-04T16:34:36.670Z,101567.86
2018-09-04T16:39:38.919Z,101572.81
2018-09-04T16:44:41.080Z,101574.62
2018-09-04T16:49:43.261Z,101572.30
2018-09-04T16:54:45.489Z,101570.05
2018-09-04T16:59:47.732Z,101567.17
2018-09-04T17:04:49.895Z,101575.92
2018-09-04T17:09:52.091Z,101578.64
2018-09-04T17:14:54.280Z,101578.29
2018-09-04T17:19:56.472Z,101586.99
2018-09-04T17:24:59.165Z,101577.55
2018-09-04T17:30:01.395Z,101581.08
2018-09-04T17:35:03.656Z,101578.55
2018-09-04T17:40:05.944Z,101575.59
2018-09-04T17:45:08.197Z,101583.34
2018-09-04T17:50:10.425Z,101582.95
2018-09-04T17:55:12.928Z,101585.08
2018-09-04T18:00:15.208Z,101590.67
2018-09-04T18:05:17.457Z,101602.27
2018-09-04T18:10:19.760Z,101605.72
2018-09-04T18:15:22.257Z,101605.73
2018-09-04T18:20:24.679Z,101604.43
2018-09-04T18:25:27.145Z,101609.56
2018-09-04T18:30:29.415Z,101620.72
2018-09-04T18:35:31.633Z,101626.31
2018-09-04T18:40:34.546Z,101620.73
2018-09-04T18:45:46.745Z,101626.31
2018-09-04T18:50:49.210Z,101632.32
2018-09-04T18:55:51.622Z,101639.60
2018-09-04T19:00:54.055Z,101641.31
2018-09-04T19:05:56.439Z,101643.48
2018-09-04T19:10:58.817Z,101645.59
2018-09-04T19:16:01.350Z,101649.42
2018-09-04T19:21:03.798Z,101651.13
2018-09-04T19:26:06.234Z,101660.16
2018-09-04T19:31:08.701Z,101654.11
2018-09-04T19:36:10.999Z,101651.10
2018-09-04T19:41:13.322Z,101652.81
2018-09-04T19:46:15.661Z,101657.97
2018-09-04T19:51:18.155Z,101663.95
2018-09-04T19:56:20.528Z,101663.54
2018-09-04T20:01:29.698Z,101663.54
2018-09-04T20:06:31.986Z,101658.37
2018-09-04T20:11:34.281Z,101657.95
2018-09-04T20:16:36.617Z,101657.52
2018-09-04T20:21:39.097Z,101659.22
2018-09-04T20:26:41.341Z,101655.76
2018-09-04T20:31:43.588Z,101657.49
2018-09-04T20:36:45.843Z,101671.20
2018-09-04T20:41:48.112Z,101667.77
2018-09-04T20:46:50.359Z,101670.19
2018-09-04T20:51:52.556Z,101669.67
2018-09-04T20:57:33.747Z,101679.51
2018-09-04T21:02:47.242Z,101676.48
2018-09-04T21:08:05.769Z,101674.33
2018-09-04T21:13:08.461Z,101676.87
2018-09-04T21:18:10.721Z,101682.42
2018-09-04T21:23:12.992Z,101682.77
2018-09-04T21:28:15.208Z,101683.14
2018-09-04T21:33:17.408Z,101688.61
2018-09-04T21:38:19.667Z,101687.64
2018-09-04T21:43:21.880Z,101687.52
2018-09-04T21:48:24.028Z,101687.97
2018-09-04T21:53:26.220Z,101690.99
2018-09-04T21:58:28.431Z,101695.30
2018-09-04T22:03:30.589Z,101692.14
2018-09-04T22:08:32.771Z,101704.34
2018-09-04T22:13:34.978Z,101704.64
2018-09-04T22:18:37.126Z,101704.18
2018-09-04T22:23:39.545Z,101698.98
2018-09-04T22:28:41.662Z,101703.66
2018-09-04T22:33:43.818Z,101705.75
2018-09-04T22:38:45.962Z,101708.78
2018-09-04T22:43:48.079Z,101715.31
2018-09-04T22:48:50.207Z,101708.55
2018-09-04T22:53:52.324Z,101715.38
2018-09-04T22:58:54.461Z,101713.63
2018-09-04T23:03:56.588Z,101718.95
2018-09-04T23:08:58.733Z,101712.76
2018-09-04T23:14:00.878Z,101715.45
2018-09-04T23:19:03.011Z,101711.34
2018-09-04T23:24:05.170Z,101707.97
2018-09-04T23:29:07.322Z,101707.03
2018-09-04T23:34:09.446Z,101706.82
2018-09-04T23:39:11.652Z,101701.77
2018-09-04T23:44:13.814Z,101704.09
2018-09-04T23:49:15.989Z,101702.16
2018-09-04T23:54:18.162Z,101706.67
2018-09-04T23:59:20.361Z,101703.45
